createdAt,value
2022-11-06T00:01:12.192Z,67.00
2022-11-06T00:03:39.117Z,67.00
2022-11-06T00:06:28.738Z,66.80
2022-11-06T00:08:57.517Z,67.00
2022-11-06T00:11:27.984Z,66.60
2022-11-06T00:13:54.856Z,66.80
2022-11-06T00:16:22.030Z,66.80
2022-11-06T00:18:50.038Z,66.80
2022-11-06T00:21:28.425Z,66.90
2022-11-06T00:23:57.130Z,67.00
2022-11-06T00:26:27.389Z,66.80
2022-11-06T00:28:54.399Z,66.80
2022-11-06T00:31:26.481Z,66.90
2022-11-06T00:33:55.653Z,66.80
2022-11-06T00:36:23.831Z,66.90
2022-11-06T00:38:54.778Z,66.90
2022-11-06T00:41:22.640Z,67.00
2022-11-06T00:43:54.922Z,66.90
2022-11-06T00:46:21.745Z,66.90
2022-11-06T00:48:48.654Z,66.90
2022-11-06T00:51:18.119Z,67.00
2022-11-06T00:53:45.761Z,66.80
2022-11-06T00:56:17.941Z,66.90
2022-11-06T00:58:45.824Z,67.10
2022-11-06T01:01:15.576Z,66.90
2022-11-06T01:03:45.782Z,66.80
2022-11-06T01:06:18.378Z,66.90
2022-11-06T01:08:46.089Z,67.00
2022-11-06T01:11:21.873Z,66.80
2022-11-06T01:13:58.211Z,66.90
2022-11-06T01:16:25.600Z,67.00
2022-11-06T01:18:53.277Z,66.70
2022-11-06T01:21:24.582Z,66.90
2022-11-06T01:23:57.535Z,66.90
2022-11-06T01:26:37.656Z,66.90
2022-11-06T01:29:08.074Z,66.80
2022-11-06T01:31:35.575Z,66.80
2022-11-06T01:34:03.429Z,66.80
2022-11-06T01:36:30.824Z,66.80
2022-11-06T01:39:00.165Z,66.70
2022-11-06T01:41:30.191Z,66.70
2022-11-06T01:44:04.290Z,66.70
2022-11-06T01:46:36.435Z,66.80
2022-11-06T01:49:11.529Z,66.70
2022-11-06T01:51:45.016Z,66.80
2022-11-06T01:54:12.915Z,66.70
2022-11-06T01:56:40.991Z,66.70
2022-11-06T01:59:12.023Z,66.80
2022-11-06T02:01:38.830Z,66.80
2022-11-06T02:04:24.378Z,66.50
2022-11-06T02:06:51.726Z,66.60
2022-11-06T02:09:19.420Z,66.60
2022-11-06T02:11:51.989Z,66.70
2022-11-06T02:14:31.897Z,66.90
2022-11-06T02:17:10.001Z,66.90
2022-11-06T02:19:46.850Z,66.70
2022-11-06T02:22:13.764Z,66.80
2022-11-06T02:24:58.615Z,66.70
2022-11-06T02:27:28.527Z,66.80
2022-11-06T02:30:06.190Z,66.80
2022-11-06T02:32:43.888Z,66.90
2022-11-06T02:35:22.682Z,66.80
2022-11-06T02:37:53.708Z,66.90
2022-11-06T02:40:22.067Z,66.90
2022-11-06T02:42:52.254Z,66.90
2022-11-06T02:45:22.756Z,66.70
2022-11-06T02:47:54.429Z,66.70
2022-11-06T02:50:45.587Z,66.80
2022-11-06T02:53:15.415Z,66.70
2022-11-06T02:55:47.156Z,66.90
2022-11-06T02:58:39.225Z,66.90
2022-11-06T03:01:32.324Z,66.90
2022-11-06T03:04:04.087Z,66.60
2022-11-06T03:06:37.733Z,66.90
2022-11-06T03:09:11.768Z,67.00
2022-11-06T03:11:39.026Z,67.10
2022-11-06T03:14:21.579Z,66.80
2022-11-06T03:17:17.706Z,67.00
2022-11-06T03:19:57.955Z,66.90
2022-11-06T03:22:37.494Z,67.10
2022-11-06T03:25:13.321Z,67.10
2022-11-06T03:27:59.975Z,67.00
2022-11-06T03:30:26.787Z,67.10
2022-11-06T03:33:24.823Z,66.90
2022-11-06T03:35:59.310Z,67.00
2022-11-06T03:38:31.076Z,67.10
2022-11-06T03:41:06.703Z,66.90
2022-11-06T03:43:37.532Z,67.00
2022-11-06T03:46:07.786Z,66.90
2022-11-06T03:48:40.451Z,66.90
2022-11-06T03:51:24.885Z,66.90
2022-11-06T03:53:56.511Z,66.90
2022-11-06T03:56:37.008Z,66.90
2022-11-06T03:59:06.103Z,67.00
2022-11-06T04:01:37.284Z,66.90
2022-11-06T04:04:32.515Z,66.90
2022-11-06T04:07:05.735Z,66.70
2022-11-06T04:09:54.000Z,66.80
2022-11-06T04:13:04.291Z,66.90
2022-11-06T04:15:36.551Z,67.00
2022-11-06T04:18:03.167Z,66.90
2022-11-06T04:20:59.321Z,66.80
2022-11-06T04:23:38.486Z,67.00
2022-11-06T04:26:35.910Z,66.90
2022-11-06T04:29:23.807Z,67.00
2022-11-06T04:31:53.132Z,66.80
2022-11-06T04:34:42.168Z,67.00
2022-11-06T04:37:38.916Z,67.20
2022-11-06T04:40:15.814Z,66.80
2022-11-06T04:42:52.660Z,67.00
2022-11-06T04:45:42.059Z,66.90
2022-11-06T04:48:10.495Z,66.90
2022-11-06T04:50:42.918Z,66.80
2022-11-06T04:53:11.383Z,66.90
2022-11-06T04:55:46.352Z,66.90
2022-11-06T04:58:13.227Z,66.90
2022-11-06T05:00:43.939Z,66.90
2022-11-06T05:03:10.778Z,66.90
2022-11-06T05:05:37.387Z,66.80
2022-11-06T05:08:04.252Z,66.90
2022-11-06T05:10:30.872Z,66.90
2022-11-06T05:12:57.476Z,66.90
2022-11-06T05:15:24.341Z,66.90
2022-11-06T05:17:50.918Z,66.90
2022-11-06T05:20:17.511Z,66.80
2022-11-06T05:23:00.415Z,66.90
2022-11-06T05:25:33.025Z,66.90
2022-11-06T05:28:00.716Z,66.90
2022-11-06T05:30:27.941Z,66.80
2022-11-06T05:32:54.778Z,66.90
2022-11-06T05:35:21.711Z,67.00
2022-11-06T05:37:48.567Z,67.00
2022-11-06T05:40:15.368Z,66.90
2022-11-06T05:42:43.575Z,67.00
2022-11-06T05:45:11.778Z,66.90
2022-11-06T05:47:41.803Z,67.00
2022-11-06T05:50:09.723Z,67.10
2022-11-06T05:52:36.432Z,66.90
2022-11-06T05:55:03.818Z,66.90
2022-11-06T05:57:30.438Z,66.90
2022-11-06T05:59:57.056Z,66.90
2022-11-06T06:02:23.831Z,66.80
2022-11-06T06:04:50.507Z,66.80
2022-11-06T06:07:17.161Z,66.80
2022-11-06T06:09:43.869Z,66.70
2022-11-06T06:12:13.358Z,66.80
2022-11-06T06:14:40.034Z,66.80
2022-11-06T06:17:06.676Z,66.70
2022-11-06T06:19:33.356Z,66.60
2022-11-06T06:21:59.948Z,66.60
2022-11-06T06:24:26.604Z,66.40
2022-11-06T06:26:53.276Z,66.50
2022-11-06T06:29:19.984Z,66.60
2022-11-06T06:31:46.554Z,66.60
2022-11-06T06:34:13.174Z,66.80
2022-11-06T06:36:42.597Z,66.60
2022-11-06T06:39:09.448Z,66.70
2022-11-06T06:41:36.508Z,66.60
2022-11-06T06:44:03.190Z,66.50
2022-11-06T06:46:29.958Z,66.50
2022-11-06T06:48:56.563Z,66.40
2022-11-06T06:51:24.201Z,66.40
2022-11-06T06:53:51.295Z,66.50
2022-11-06T06:56:18.150Z,66.50
2022-11-06T06:58:44.898Z,66.30
2022-11-06T07:01:11.642Z,66.40
2022-11-06T07:03:39.031Z,66.40
2022-11-06T07:06:07.164Z,66.60
2022-11-06T07:08:34.118Z,66.50
2022-11-06T07:11:06.765Z,66.50
2022-11-06T07:13:36.176Z,66.60
2022-11-06T07:16:08.901Z,66.50
2022-11-06T07:18:38.858Z,66.60
2022-11-06T07:21:10.771Z,66.60
2022-11-06T07:23:38.172Z,66.60
2022-11-06T07:26:06.064Z,66.40
2022-11-06T07:28:35.777Z,66.40
2022-11-06T07:31:04.775Z,66.50
2022-11-06T07:33:35.003Z,66.60
2022-11-06T07:36:06.700Z,66.60
2022-11-06T07:38:35.139Z,66.80
2022-11-06T07:41:03.637Z,66.60
2022-11-06T07:43:30.610Z,66.60
2022-11-06T07:46:02.265Z,66.60
2022-11-06T07:48:29.973Z,66.70
2022-11-06T07:50:56.867Z,66.60
2022-11-06T07:53:23.930Z,66.50
2022-11-06T07:55:56.209Z,66.60
2022-11-06T07:58:23.751Z,66.70
2022-11-06T08:00:58.686Z,66.60
2022-11-06T08:03:26.757Z,66.90
2022-11-06T08:05:53.509Z,66.60
2022-11-06T08:08:20.089Z,66.70
2022-11-06T08:10:47.637Z,66.60
2022-11-06T08:13:16.547Z,66.60
2022-11-06T08:15:43.561Z,66.70
2022-11-06T08:18:12.118Z,66.70
2022-11-06T08:20:39.806Z,66.80
2022-11-06T08:23:08.167Z,66.80
2022-11-06T08:25:35.206Z,66.90
2022-11-06T08:28:02.967Z,66.80
2022-11-06T08:30:31.067Z,66.70
2022-11-06T08:33:06.451Z,66.80
2022-11-06T08:35:34.807Z,67.00
2022-11-06T08:38:01.663Z,66.90
2022-11-06T08:40:31.182Z,67.00
2022-11-06T08:43:03.226Z,67.00
2022-11-06T08:45:32.213Z,67.20
2022-11-06T08:48:03.398Z,67.10
2022-11-06T08:50:31.491Z,67.20
2022-11-06T08:52:59.587Z,67.20
2022-11-06T08:55:26.677Z,67.10
2022-11-06T08:57:56.877Z,67.00
2022-11-06T09:00:23.856Z,67.20
2022-11-06T09:02:50.623Z,67.10
2022-11-06T09:05:17.417Z,67.00
2022-11-06T09:07:44.004Z,67.00
2022-11-06T09:10:10.804Z,66.70
2022-11-06T09:12:37.475Z,66.80
2022-11-06T09:15:04.440Z,66.80
2022-11-06T09:17:31.119Z,66.80
2022-11-06T09:19:58.007Z,66.80
2022-11-06T09:22:24.579Z,66.70
2022-11-06T09:25:03.274Z,66.80
2022-11-06T09:27:30.843Z,66.80
2022-11-06T09:29:57.731Z,66.90
2022-11-06T09:32:24.964Z,66.90
2022-11-06T09:34:51.864Z,66.80
2022-11-06T09:37:18.422Z,66.80
2022-11-06T09:39:45.012Z,66.80
2022-11-06T09:42:53.630Z,66.90
2022-11-06T09:45:24.238Z,66.90
2022-11-06T09:48:03.403Z,67.00
2022-11-06T09:50:35.398Z,67.20
2022-11-06T09:53:10.762Z,67.20
2022-11-06T09:55:42.944Z,67.30
2022-11-06T09:58:25.072Z,67.20
2022-11-06T10:00:54.166Z,67.20
2022-11-06T10:03:41.649Z,67.20
2022-11-06T10:06:08.407Z,67.00
2022-11-06T10:08:35.749Z,66.90
2022-11-06T10:11:14.083Z,67.20
2022-11-06T10:14:08.133Z,67.20
2022-11-06T10:16:34.684Z,66.90
2022-11-06T10:19:10.346Z,66.90
2022-11-06T10:21:49.964Z,67.00
2022-11-06T10:24:19.574Z,66.90
2022-11-06T10:26:52.127Z,66.90
2022-11-06T10:29:43.056Z,67.10
2022-11-06T10:32:40.131Z,67.20
2022-11-06T10:35:18.764Z,67.10
2022-11-06T10:37:52.260Z,67.30
2022-11-06T10:40:26.861Z,67.30
2022-11-06T10:43:21.490Z,67.30
2022-11-06T10:45:53.337Z,67.30
2022-11-06T10:48:32.520Z,67.40
2022-11-06T10:51:32.368Z,67.40
2022-11-06T10:54:29.486Z,67.50
2022-11-06T10:57:07.848Z,67.60
2022-11-06T10:59:34.856Z,67.60
2022-11-06T11:02:03.332Z,67.40
2022-11-06T11:04:32.551Z,67.40
2022-11-06T11:07:18.775Z,67.50
2022-11-06T11:09:49.749Z,67.50
2022-11-06T11:12:31.150Z,67.50
2022-11-06T11:15:12.358Z,67.50
2022-11-06T11:17:40.815Z,67.50
2022-11-06T11:20:33.633Z,67.50
2022-11-06T11:23:10.774Z,67.50
2022-11-06T11:25:37.634Z,67.40
2022-11-06T11:28:05.169Z,67.40
2022-11-06T11:30:31.943Z,67.40
2022-11-06T11:32:59.363Z,67.30
2022-11-06T11:35:31.096Z,67.20
2022-11-06T11:38:11.936Z,67.20
2022-11-06T11:40:39.925Z,67.20
2022-11-06T11:43:26.426Z,67.20
2022-11-06T11:46:09.285Z,67.20
2022-11-06T11:48:46.916Z,67.10
2022-11-06T11:51:33.798Z,67.10
2022-11-06T11:54:15.176Z,67.10
2022-11-06T11:57:04.728Z,67.00
2022-11-06T11:59:49.622Z,67.00
2022-11-06T12:02:34.774Z,67.00
2022-11-06T12:05:03.373Z,67.00
2022-11-06T12:07:33.690Z,66.70
2022-11-06T12:10:02.363Z,66.80
2022-11-06T12:12:34.350Z,66.90
2022-11-06T12:15:16.507Z,67.00
2022-11-06T12:17:46.741Z,67.00
2022-11-06T12:20:19.670Z,66.90
2022-11-06T12:22:49.643Z,66.80
2022-11-06T12:25:30.678Z,66.80
2022-11-06T12:28:00.578Z,66.80
2022-11-06T12:30:28.889Z,66.70
2022-11-06T12:33:11.102Z,66.70
2022-11-06T12:36:00.002Z,66.80
2022-11-06T12:38:44.347Z,66.70
2022-11-06T12:41:14.443Z,66.70
2022-11-06T12:43:46.884Z,66.60
2022-11-06T12:46:28.468Z,66.70
2022-11-06T12:49:08.994Z,66.60
2022-11-06T12:52:24.085Z,66.60
2022-11-06T12:55:12.196Z,66.60
2022-11-06T12:58:00.121Z,66.50
2022-11-06T13:00:54.661Z,66.50
2022-11-06T13:03:50.160Z,66.50
2022-11-06T13:06:31.305Z,66.40
2022-11-06T13:09:06.580Z,66.20
2022-11-06T13:12:04.498Z,66.30
2022-11-06T13:14:45.896Z,66.30
2022-11-06T13:17:23.154Z,66.40
2022-11-06T13:19:49.658Z,66.40
2022-11-06T13:22:28.004Z,66.30
2022-11-06T13:25:16.754Z,66.40
2022-11-06T13:28:08.148Z,66.30
2022-11-06T13:30:37.060Z,66.30
2022-11-06T13:33:24.310Z,66.20
2022-11-06T13:35:51.768Z,66.20
2022-11-06T13:38:27.219Z,66.20
2022-11-06T13:41:03.266Z,66.20
2022-11-06T13:43:44.625Z,66.20
2022-11-06T13:46:12.018Z,66.10
2022-11-06T13:48:52.360Z,66.00
2022-11-06T13:51:21.745Z,66.00
2022-11-06T13:54:07.624Z,66.00
2022-11-06T13:57:03.567Z,65.90
2022-11-06T14:00:08.075Z,66.00
2022-11-06T14:02:50.322Z,65.90
2022-11-06T14:05:50.780Z,65.90
2022-11-06T14:08:34.002Z,66.00
2022-11-06T14:11:17.407Z,66.00
2022-11-06T14:14:07.857Z,66.10
2022-11-06T14:16:37.453Z,66.00
2022-11-06T14:19:15.295Z,66.00
2022-11-06T14:21:46.302Z,66.00
2022-11-06T14:24:34.982Z,66.10
2022-11-06T14:27:10.346Z,66.00
2022-11-06T14:29:36.901Z,66.10
2022-11-06T14:32:34.678Z,66.00
2022-11-06T14:35:29.548Z,65.90
2022-11-06T14:38:32.098Z,66.00
2022-11-06T14:40:59.158Z,65.90
2022-11-06T14:43:32.355Z,65.90
2022-11-06T14:46:01.629Z,66.00
2022-11-06T14:48:55.667Z,66.00
2022-11-06T14:51:27.802Z,65.90
2022-11-06T14:53:58.791Z,65.90
2022-11-06T14:56:33.842Z,66.00
2022-11-06T14:59:08.864Z,66.00
2022-11-06T15:01:37.287Z,66.10
2022-11-06T15:04:18.154Z,66.00
2022-11-06T15:06:48.732Z,66.00
2022-11-06T15:09:24.463Z,66.00
2022-11-06T15:11:57.089Z,66.10
2022-11-06T15:14:24.270Z,66.00
2022-11-06T15:17:05.174Z,66.00
2022-11-06T15:19:38.155Z,66.10
2022-11-06T15:22:40.247Z,66.00
2022-11-06T15:25:23.158Z,66.00
2022-11-06T15:27:59.055Z,66.10
2022-11-06T15:30:27.735Z,66.10
2022-11-06T15:32:55.283Z,66.10
2022-11-06T15:35:28.428Z,66.10
2022-11-06T15:38:15.579Z,66.00
2022-11-06T15:40:43.270Z,66.10
2022-11-06T15:43:24.014Z,66.00
2022-11-06T15:46:23.985Z,66.10
2022-11-06T15:49:14.436Z,66.10
2022-11-06T15:51:41.058Z,66.00
2022-11-06T15:54:14.335Z,66.00
2022-11-06T15:56:41.671Z,66.10
2022-11-06T15:59:11.866Z,66.00
2022-11-06T16:01:39.375Z,66.10
2022-11-06T16:04:15.677Z,66.00
2022-11-06T16:06:43.609Z,66.00
2022-11-06T16:09:23.594Z,66.00
2022-11-06T16:11:51.708Z,66.10
2022-11-06T16:14:19.138Z,66.10
2022-11-06T16:16:48.671Z,66.00
2022-11-06T16:19:30.211Z,66.10
2022-11-06T16:22:01.024Z,66.00
2022-11-06T16:24:31.780Z,66.00
2022-11-06T16:26:59.088Z,66.00
2022-11-06T16:29:30.799Z,66.00
2022-11-06T16:32:04.893Z,66.10
2022-11-06T16:34:31.539Z,66.10
2022-11-06T16:37:05.674Z,66.00
2022-11-06T16:39:52.787Z,66.00
2022-11-06T16:42:30.167Z,66.00
2022-11-06T16:44:59.702Z,66.10
2022-11-06T16:47:26.587Z,66.10
2022-11-06T16:50:02.019Z,66.20
2022-11-06T16:52:30.219Z,66.20
2022-11-06T16:55:02.451Z,66.20
2022-11-06T16:57:36.848Z,66.20
2022-11-06T17:00:23.218Z,66.20
2022-11-06T17:03:04.668Z,66.20
2022-11-06T17:05:39.096Z,66.20
2022-11-06T17:08:07.163Z,66.30
2022-11-06T17:10:43.451Z,66.20
2022-11-06T17:13:14.400Z,66.30
2022-11-06T17:15:42.219Z,66.30
2022-11-06T17:18:32.947Z,66.30
2022-11-06T17:21:01.931Z,66.30
2022-11-06T17:23:30.167Z,66.30
2022-11-06T17:26:02.061Z,66.30
2022-11-06T17:28:28.909Z,66.30
2022-11-06T17:30:55.846Z,66.30
2022-11-06T17:33:22.481Z,66.30
2022-11-06T17:35:49.724Z,66.30
2022-11-06T17:38:17.519Z,66.30
2022-11-06T17:40:45.464Z,66.30
2022-11-06T17:43:12.617Z,66.30
2022-11-06T17:45:41.218Z,66.30
2022-11-06T17:48:07.830Z,66.30
2022-11-06T17:50:54.491Z,66.30
2022-11-06T17:53:21.073Z,66.30
2022-11-06T17:55:47.676Z,66.30
2022-11-06T17:58:14.519Z,66.30
2022-11-06T18:00:41.414Z,66.30
2022-11-06T18:03:08.091Z,66.30
2022-11-06T18:05:35.895Z,66.30
2022-11-06T18:08:02.555Z,66.30
2022-11-06T18:10:30.679Z,66.40
2022-11-06T18:12:57.635Z,66.30
2022-11-06T18:15:24.390Z,66.30
2022-11-06T18:17:50.990Z,66.30
2022-11-06T18:20:17.658Z,66.40
2022-11-06T18:22:44.240Z,66.40
2022-11-06T18:25:11.216Z,66.50
2022-11-06T18:27:37.788Z,66.50
2022-11-06T18:30:04.762Z,66.40
2022-11-06T18:32:31.370Z,66.50
2022-11-06T18:34:58.206Z,66.50
2022-11-06T18:37:25.874Z,66.50
2022-11-06T18:39:52.698Z,66.50
2022-11-06T18:42:19.400Z,66.60
2022-11-06T18:44:46.169Z,66.60
2022-11-06T18:47:12.849Z,66.60
2022-11-06T18:49:39.507Z,66.60
2022-11-06T18:52:06.092Z,66.70
2022-11-06T18:54:32.688Z,66.70
2022-11-06T18:56:59.234Z,66.80
2022-11-06T18:59:25.807Z,66.70
2022-11-06T19:01:53.204Z,66.70
2022-11-06T19:04:21.716Z,66.80
2022-11-06T19:06:49.204Z,66.70
2022-11-06T19:09:16.022Z,66.60
2022-11-06T19:11:42.857Z,66.70
2022-11-06T19:14:09.474Z,66.70
2022-11-06T19:16:36.459Z,66.60
2022-11-06T19:19:05.923Z,66.80
2022-11-06T19:21:33.712Z,66.70
2022-11-06T19:24:05.704Z,66.70
2022-11-06T19:26:34.903Z,66.90
2022-11-06T19:29:02.250Z,66.70
2022-11-06T19:31:30.205Z,66.80
2022-11-06T19:33:58.777Z,66.80
2022-11-06T19:36:25.866Z,66.90
2022-11-06T19:38:53.492Z,66.90
2022-11-06T19:41:21.133Z,66.90
2022-11-06T19:43:47.904Z,66.90
2022-11-06T19:46:23.443Z,66.80
2022-11-06T19:48:51.627Z,66.90
2022-11-06T19:51:21.044Z,66.90
2022-11-06T19:53:52.698Z,66.90
2022-11-06T19:56:19.583Z,66.90
2022-11-06T19:58:48.518Z,66.90
2022-11-06T20:01:15.522Z,66.90
2022-11-06T20:03:43.086Z,66.90
2022-11-06T20:06:11.118Z,67.00
2022-11-06T20:08:38.711Z,66.90
2022-11-06T20:11:07.480Z,66.90
2022-11-06T20:13:36.711Z,67.00
2022-11-06T20:16:08.507Z,67.10
2022-11-06T20:18:35.845Z,67.10
2022-11-06T20:21:04.886Z,66.90
2022-11-06T20:23:33.477Z,66.90
2022-11-06T20:26:00.569Z,67.00
2022-11-06T20:28:27.453Z,67.00
2022-11-06T20:30:54.282Z,67.00
2022-11-06T20:33:21.060Z,67.00
2022-11-06T20:35:47.715Z,67.00
2022-11-06T20:38:14.806Z,67.10
2022-11-06T20:40:42.497Z,66.90
2022-11-06T20:43:09.597Z,67.10
2022-11-06T20:45:37.412Z,67.00
2022-11-06T20:48:05.879Z,67.00
2022-11-06T20:50:33.709Z,67.00
2022-11-06T20:53:00.874Z,66.80
2022-11-06T20:55:27.747Z,66.90
2022-11-06T20:57:54.445Z,67.00
2022-11-06T21:00:21.509Z,67.00
2022-11-06T21:02:48.561Z,66.70
2022-11-06T21:05:15.274Z,66.90
2022-11-06T21:07:41.918Z,67.00
2022-11-06T21:10:13.913Z,67.10
2022-11-06T21:12:40.501Z,66.90
2022-11-06T21:15:07.703Z,66.80
2022-11-06T21:17:35.120Z,66.90
2022-11-06T21:20:01.744Z,66.90
2022-11-06T21:22:28.355Z,66.90
2022-11-06T21:24:54.904Z,67.00
2022-11-06T21:27:21.575Z,67.00
2022-11-06T21:29:48.240Z,67.10
2022-11-06T21:32:14.852Z,67.30
2022-11-06T21:34:41.457Z,66.90
2022-11-06T21:37:09.143Z,67.00
2022-11-06T21:39:36.661Z,67.10
2022-11-06T21:42:04.801Z,67.10
2022-11-06T21:44:31.863Z,67.00
2022-11-06T21:46:58.418Z,67.00
2022-11-06T21:49:25.063Z,67.10
2022-11-06T21:51:51.696Z,67.10
2022-11-06T21:54:36.690Z,67.10
2022-11-06T21:57:03.341Z,67.40
2022-11-06T21:59:30.039Z,67.20
2022-11-06T22:01:56.949Z,67.40
2022-11-06T22:04:24.121Z,67.20
2022-11-06T22:06:52.208Z,67.30
2022-11-06T22:09:24.414Z,67.40
2022-11-06T22:11:52.138Z,67.40
2022-11-06T22:14:21.733Z,67.50
2022-11-06T22:16:48.426Z,67.70
2022-11-06T22:19:17.476Z,67.50
2022-11-06T22:21:44.128Z,67.60
2022-11-06T22:24:12.738Z,67.60
2022-11-06T22:26:39.677Z,67.60
2022-11-06T22:29:10.574Z,67.40
2022-11-06T22:31:37.211Z,67.50
2022-11-06T22:34:04.497Z,67.30
2022-11-06T22:36:31.247Z,67.40
2022-11-06T22:38:59.842Z,67.40
2022-11-06T22:41:26.683Z,67.50
2022-11-06T22:43:59.028Z,67.50
2022-11-06T22:46:26.848Z,67.50
2022-11-06T22:48:53.909Z,67.50
2022-11-06T22:51:25.864Z,67.50
2022-11-06T22:53:53.320Z,67.20
2022-11-06T22:56:22.360Z,67.20
2022-11-06T22:58:56.644Z,67.20
2022-11-06T23:01:25.082Z,67.30
2022-11-06T23:03:56.533Z,67.30
2022-11-06T23:06:24.598Z,67.30
2022-11-06T23:08:52.166Z,67.30
2022-11-06T23:11:19.307Z,67.10
2022-11-06T23:13:46.038Z,67.40
2022-11-06T23:16:15.108Z,67.20
2022-11-06T23:18:42.075Z,67.20
2022-11-06T23:21:17.438Z,67.30
2022-11-06T23:23:45.179Z,67.60
2022-11-06T23:26:17.970Z,67.40
2022-11-06T23:28:45.702Z,67.40
2022-11-06T23:31:14.376Z,67.20
2022-11-06T23:33:41.707Z,67.30
2022-11-06T23:36:14.765Z,67.40
2022-11-06T23:38:41.887Z,67.40
2022-11-06T23:41:28.256Z,67.00
2022-11-06T23:43:56.375Z,67.10
2022-11-06T23:46:25.726Z,67.10
2022-11-06T23:48:52.328Z,67.10
2022-11-06T23:51:19.637Z,67.20
2022-11-06T23:53:46.239Z,67.30
2022-11-06T23:56:13.793Z,67.10
2022-11-06T23:58:41.590Z,67.30
